Hlavní strana
METAR-TAF:

METAR-TAF

Letiště :

Accomack County Airport

Melfa, Virginie, Spojené státy americké

zeměpisná šířka: 37-39N, zeměpisná délka: 075-46W, výška: 15 m

Aktuální stav počasí

Zpráva byla vytvořena před 23 minutami, v 12:55 UTC
Východní vítr 6 kt
Teplota 17°C
Vlhkost vzduchu 94%
Tlak 1023 hPa
Viditelnost: 6.4 km
Zataženo ve výšce 300 ft
kouřmo

METAR: KMFV 261255Z AUTO 08006KT 4SM BR OVC003 17/16 A3021 RMK AO2 T01650160

Čas: 09:18 (13:18 UTC)


TAF: chybějící

Stav a předpovědi počasí z více než 4 000 letišť (zprávy METAR a TAF).

Červené a žluté tečky na mapě představují dostupné meteorologické stanice.

Když kurzor umístíte na tečku, zobrazí se název stanice.

Pak kliknutím zobrazíte stav a předpověď počasí.

Chcete-li změnit mapu, kliknutím na zelené tlačítko se znaménkem +mapu přiblížíte, kliknutím na zelené tlačítko se znaménkem – mapu oddálíte a kliknutím na zelené šipky přejdete na sousední mapy.


METAR-TAF: